createdAt,value
2022-08-24T00:00:26.086Z,8.65
2022-08-24T00:02:53.010Z,7.68
2022-08-24T00:05:21.348Z,8.98
2022-08-24T00:07:49.178Z,9.00
2022-08-24T00:10:17.416Z,11.45
2022-08-24T00:12:44.045Z,6.90
2022-08-24T00:15:12.849Z,10.25
2022-08-24T00:17:40.132Z,8.30
2022-08-24T00:20:09.106Z,8.48
2022-08-24T00:22:36.038Z,10.00
2022-08-24T00:25:03.130Z,7.78
2022-08-24T00:27:29.780Z,8.82
2022-08-24T00:29:57.052Z,7.20
2022-08-24T00:32:23.824Z,10.15
2022-08-24T00:34:54.107Z,9.48
2022-08-24T00:37:26.634Z,9.48
2022-08-24T00:39:53.479Z,9.38
2022-08-24T00:42:20.125Z,9.75
2022-08-24T00:44:47.128Z,12.38
2022-08-24T00:47:33.146Z,9.10
2022-08-24T00:50:05.981Z,7.05
2022-08-24T00:52:40.057Z,9.07
2022-08-24T00:55:32.541Z,11.18
2022-08-24T00:58:11.213Z,13.85
2022-08-24T01:00:49.361Z,8.05
2022-08-24T01:03:17.467Z,8.73
2022-08-24T01:05:44.261Z,7.47
2022-08-24T01:08:13.551Z,8.88
2022-08-24T01:10:46.429Z,9.32
2022-08-24T01:13:14.754Z,9.32
2022-08-24T01:15:45.464Z,13.52
2022-08-24T01:18:35.734Z,9.68
2022-08-24T01:23:43.978Z,11.57
2022-08-24T01:26:16.427Z,12.88
2022-08-24T01:28:46.204Z,7.43
2022-08-24T01:31:13.666Z,6.72
2022-08-24T01:33:40.353Z,11.18
2022-08-24T01:36:18.820Z,12.63
2022-08-24T01:38:46.797Z,21.13
2022-08-24T01:41:13.470Z,11.05
2022-08-24T01:43:41.052Z,20.13
2022-08-24T01:46:08.267Z,17.25
2022-08-24T01:48:34.972Z,20.95
2022-08-24T01:51:01.844Z,29.95
2022-08-24T01:53:28.881Z,25.55
2022-08-24T01:55:55.825Z,33.10
2022-08-24T01:58:22.552Z,24.05
2022-08-24T02:00:49.359Z,31.05
2022-08-24T02:03:16.508Z,34.55
2022-08-24T02:05:43.282Z,42.45
2022-08-24T02:08:10.224Z,49.72
2022-08-24T02:10:36.869Z,34.03
2022-08-24T02:13:04.762Z,37.00
2022-08-24T02:15:38.771Z,30.40
2022-08-24T02:18:15.763Z,37.42
2022-08-24T02:20:44.360Z,28.67
2022-08-24T02:23:11.162Z,34.78
2022-08-24T02:25:37.942Z,41.90
2022-08-24T02:28:05.185Z,33.47
2022-08-24T02:30:32.406Z,40.25
2022-08-24T02:33:00.286Z,36.28
2022-08-24T02:35:29.486Z,41.15
2022-08-24T02:37:56.201Z,36.58
2022-08-24T02:40:24.451Z,46.42
2022-08-24T02:42:51.621Z,42.08
2022-08-24T02:45:18.785Z,50.30
2022-08-24T02:47:45.614Z,49.25
2022-08-24T02:50:15.455Z,55.65
2022-08-24T02:52:43.309Z,50.45
2022-08-24T02:55:14.417Z,57.15
2022-08-24T02:57:41.173Z,52.33
2022-08-24T03:00:13.538Z,49.95
2022-08-24T03:02:40.832Z,58.92
2022-08-24T03:05:09.940Z,51.67
2022-08-24T03:07:37.271Z,51.97
2022-08-24T03:10:06.428Z,53.60
2022-08-24T03:12:34.758Z,51.22
2022-08-24T03:15:02.349Z,47.30
2022-08-24T03:17:31.441Z,34.80
2022-08-24T03:19:58.362Z,36.85
2022-08-24T03:22:25.086Z,39.58
2022-08-24T03:24:52.070Z,45.60
2022-08-24T03:27:19.253Z,35.35
2022-08-24T03:29:45.940Z,38.75
2022-08-24T03:32:12.965Z,43.40
2022-08-24T03:34:39.612Z,39.78
2022-08-24T03:37:06.276Z,38.92
2022-08-24T03:39:33.029Z,41.17
2022-08-24T03:41:59.676Z,36.92
2022-08-24T03:44:26.668Z,34.60
2022-08-24T03:46:53.993Z,32.70
2022-08-24T03:49:21.366Z,38.83
2022-08-24T03:51:49.657Z,37.88
2022-08-24T03:54:17.526Z,31.23
2022-08-24T03:56:44.573Z,38.92
2022-08-24T03:59:11.665Z,33.20
2022-08-24T04:01:39.160Z,28.08
2022-08-24T04:04:06.468Z,35.30
2022-08-24T04:06:33.312Z,30.58
2022-08-24T04:08:59.954Z,25.42
2022-08-24T04:11:28.698Z,28.67
2022-08-24T04:13:57.446Z,27.98
2022-08-24T04:16:26.123Z,34.40
2022-08-24T04:18:52.952Z,30.02
2022-08-24T04:21:32.144Z,31.08
2022-08-24T04:24:03.970Z,33.50
2022-08-24T04:26:45.320Z,37.53
2022-08-24T04:29:14.822Z,36.33
2022-08-24T04:31:43.019Z,32.83
2022-08-24T04:34:10.598Z,25.33
2022-08-24T04:36:39.281Z,34.45
2022-08-24T04:39:06.134Z,29.90
2022-08-24T04:41:33.129Z,33.42
2022-08-24T04:44:01.937Z,28.05
2022-08-24T04:46:29.729Z,28.85
2022-08-24T04:48:56.395Z,32.53
2022-08-24T04:51:23.111Z,29.10
2022-08-24T04:53:50.640Z,29.17
2022-08-24T04:56:25.150Z,27.17
2022-08-24T04:58:55.998Z,30.00
2022-08-24T05:01:26.704Z,33.13
2022-08-24T05:03:55.359Z,30.80
2022-08-24T05:06:29.267Z,26.42
2022-08-24T05:08:56.927Z,28.70
2022-08-24T05:11:24.217Z,27.10
2022-08-24T05:13:57.636Z,29.17
2022-08-24T05:16:25.667Z,39.47
2022-08-24T05:18:52.905Z,47.08
2022-08-24T05:21:21.644Z,41.70
2022-08-24T05:23:48.710Z,38.50
2022-08-24T05:26:22.330Z,36.38
2022-08-24T05:28:49.018Z,47.88
2022-08-24T05:31:19.742Z,45.20
2022-08-24T05:33:48.080Z,46.80
2022-08-24T05:36:25.113Z,41.35
2022-08-24T05:38:54.696Z,45.35
2022-08-24T05:41:21.908Z,36.90
2022-08-24T05:43:49.032Z,38.00
2022-08-24T05:46:16.209Z,39.10
2022-08-24T05:48:43.249Z,38.28
2022-08-24T05:51:19.601Z,32.95
2022-08-24T05:53:46.246Z,33.10
2022-08-24T05:56:15.434Z,35.97
2022-08-24T05:58:42.334Z,31.23
2022-08-24T06:01:15.044Z,33.35
2022-08-24T06:03:42.488Z,33.92
2022-08-24T06:06:11.004Z,35.33
2022-08-24T06:08:41.761Z,47.28
2022-08-24T06:11:09.120Z,29.83
2022-08-24T06:13:36.694Z,33.88
2022-08-24T06:16:24.841Z,39.67
2022-08-24T06:18:52.668Z,36.90
2022-08-24T06:21:24.046Z,33.47
2022-08-24T06:23:51.288Z,31.20
2022-08-24T06:26:38.416Z,34.42
2022-08-24T06:29:05.995Z,37.72
2022-08-24T06:31:39.641Z,34.22
2022-08-24T06:34:08.001Z,36.65
2022-08-24T06:36:34.785Z,27.10
2022-08-24T06:39:01.484Z,32.55
2022-08-24T06:41:28.237Z,29.15
2022-08-24T06:43:54.962Z,32.75
2022-08-24T06:46:25.010Z,35.67
2022-08-24T06:48:54.117Z,30.27
2022-08-24T06:51:22.681Z,26.98
2022-08-24T06:53:50.528Z,26.75
2022-08-24T06:56:18.508Z,30.05
2022-08-24T06:58:45.516Z,28.23
2022-08-24T07:01:18.375Z,29.67
2022-08-24T07:03:45.606Z,25.50
2022-08-24T07:06:14.188Z,26.60
2022-08-24T07:08:42.561Z,23.75
2022-08-24T07:11:11.041Z,24.33
2022-08-24T07:13:38.459Z,23.60
2022-08-24T07:16:05.571Z,26.13
2022-08-24T07:18:32.405Z,24.60
2022-08-24T07:21:03.470Z,26.83
2022-08-24T07:23:42.040Z,21.45
2022-08-24T07:26:17.180Z,19.63
2022-08-24T07:29:04.857Z,23.45
2022-08-24T07:31:36.272Z,20.85
2022-08-24T07:34:04.026Z,21.85
2022-08-24T07:36:30.856Z,19.88
2022-08-24T07:38:58.895Z,19.98
2022-08-24T07:41:43.459Z,21.88
2022-08-24T07:44:15.867Z,24.48
2022-08-24T07:46:43.163Z,19.25
2022-08-24T07:49:21.554Z,23.08
2022-08-24T07:51:58.188Z,24.38
2022-08-24T07:54:25.169Z,18.92
2022-08-24T07:56:52.542Z,22.98
2022-08-24T07:59:19.232Z,20.88
2022-08-24T08:01:45.954Z,23.23
2022-08-24T08:04:14.176Z,20.52
2022-08-24T08:06:42.605Z,23.42
2022-08-24T08:09:09.576Z,25.75
2022-08-24T08:11:36.202Z,18.20
2022-08-24T08:14:03.003Z,23.35
2022-08-24T08:16:29.893Z,21.98
2022-08-24T08:19:11.791Z,20.33
2022-08-24T08:22:08.679Z,21.92
2022-08-24T08:24:38.073Z,23.38
2022-08-24T08:27:05.311Z,18.08
2022-08-24T08:29:33.670Z,21.65
2022-08-24T08:32:01.235Z,19.73
2022-08-24T08:34:28.901Z,23.77
2022-08-24T08:36:55.625Z,21.23
2022-08-24T08:39:23.061Z,22.52
2022-08-24T08:42:08.612Z,22.15
2022-08-24T08:45:03.258Z,21.13
2022-08-24T08:48:07.527Z,22.63
2022-08-24T08:51:03.342Z,20.77
2022-08-24T08:53:58.006Z,22.65
2022-08-24T08:57:02.395Z,23.50
2022-08-24T08:59:54.930Z,20.17
2022-08-24T09:02:51.300Z,18.05
2022-08-24T09:05:30.638Z,21.65
2022-08-24T09:08:33.198Z,20.27
2022-08-24T09:11:12.850Z,16.52
2022-08-24T09:13:58.958Z,18.50
2022-08-24T09:17:08.537Z,16.92
2022-08-24T09:20:10.076Z,16.38
2022-08-24T09:22:43.527Z,15.93
2022-08-24T09:25:24.837Z,19.38
2022-08-24T09:28:12.243Z,21.23
2022-08-24T09:31:10.433Z,20.77
2022-08-24T09:33:56.038Z,16.88
2022-08-24T09:36:38.638Z,18.67
2022-08-24T09:39:14.430Z,16.15
2022-08-24T09:41:52.120Z,15.45
2022-08-24T09:44:43.336Z,19.65
2022-08-24T09:47:42.674Z,18.33
2022-08-24T09:50:32.284Z,15.93
2022-08-24T09:53:30.327Z,21.38
2022-08-24T09:56:15.684Z,16.63
2022-08-24T09:59:04.469Z,14.52
2022-08-24T10:01:47.671Z,18.00
2022-08-24T10:04:39.723Z,16.77
2022-08-24T10:07:35.635Z,21.77
2022-08-24T10:10:26.502Z,14.57
2022-08-24T10:13:18.915Z,17.02
2022-08-24T10:16:15.337Z,18.42
2022-08-24T10:19:07.052Z,17.15
2022-08-24T10:22:05.286Z,23.23
2022-08-24T10:24:36.742Z,16.02
2022-08-24T10:27:28.573Z,20.55
2022-08-24T10:30:15.924Z,13.65
2022-08-24T10:33:22.642Z,12.35
2022-08-24T10:36:14.582Z,18.65
2022-08-24T10:39:10.561Z,15.75
2022-08-24T10:42:01.465Z,11.50
2022-08-24T10:44:46.379Z,12.85
2022-08-24T10:47:23.506Z,12.73
2022-08-24T10:50:21.015Z,14.65
2022-08-24T10:53:05.948Z,13.48
2022-08-24T10:55:34.634Z,10.63
2022-08-24T10:58:09.757Z,17.23
2022-08-24T11:00:36.712Z,12.80
2022-08-24T11:03:27.612Z,13.60
2022-08-24T11:05:57.026Z,13.90
2022-08-24T11:08:28.072Z,17.65
2022-08-24T11:11:22.810Z,14.80
2022-08-24T11:13:59.148Z,12.30
2022-08-24T11:16:36.968Z,15.63
2022-08-24T11:19:09.718Z,15.13
2022-08-24T11:21:49.198Z,24.20
2022-08-24T11:24:18.805Z,16.98
2022-08-24T11:26:53.556Z,18.75
2022-08-24T11:29:20.866Z,11.57
2022-08-24T11:31:50.581Z,13.60
2022-08-24T11:34:29.766Z,12.80
2022-08-24T11:36:56.406Z,14.43
2022-08-24T11:39:32.249Z,13.85
2022-08-24T11:42:07.985Z,10.85
2022-08-24T11:44:39.164Z,14.30
2022-08-24T11:47:31.576Z,11.15
2022-08-24T11:50:32.702Z,13.85
2022-08-24T11:53:12.313Z,11.73
2022-08-24T11:56:00.334Z,11.20
2022-08-24T11:58:46.247Z,11.23
2022-08-24T12:01:29.044Z,15.65
2022-08-24T12:04:20.521Z,13.52
2022-08-24T12:06:55.749Z,9.80
2022-08-24T12:09:31.599Z,12.07
2022-08-24T12:12:21.330Z,9.65
2022-08-24T12:15:00.512Z,11.40
2022-08-24T12:18:02.748Z,8.70
2022-08-24T12:20:35.685Z,11.27
2022-08-24T12:23:20.523Z,8.05
2022-08-24T12:26:04.568Z,9.80
2022-08-24T12:28:34.982Z,10.82
2022-08-24T12:31:09.444Z,11.23
2022-08-24T12:33:38.011Z,11.75
2022-08-24T12:36:13.626Z,9.55
2022-08-24T12:38:48.135Z,8.02
2022-08-24T12:41:26.759Z,8.80
2022-08-24T12:44:01.385Z,9.63
2022-08-24T12:46:28.220Z,12.43
2022-08-24T12:49:15.388Z,11.65
2022-08-24T12:52:09.475Z,12.20
2022-08-24T12:54:45.688Z,10.18
2022-08-24T12:57:19.681Z,11.13
2022-08-24T12:59:52.546Z,9.57
2022-08-24T13:02:19.330Z,10.90
2022-08-24T13:04:48.902Z,10.73
2022-08-24T13:07:21.518Z,10.60
2022-08-24T13:09:56.801Z,8.93
2022-08-24T13:12:41.709Z,8.65
2022-08-24T13:15:23.567Z,10.63
2022-08-24T13:18:02.537Z,10.73
2022-08-24T13:20:36.210Z,8.63
2022-08-24T13:23:06.021Z,10.20
2022-08-24T13:25:46.666Z,9.25
2022-08-24T13:28:22.713Z,9.55
2022-08-24T13:31:17.008Z,9.27
2022-08-24T13:34:02.794Z,12.77
2022-08-24T13:36:29.472Z,10.90
2022-08-24T13:39:14.947Z,15.00
2022-08-24T13:41:55.480Z,10.13
2022-08-24T13:44:53.082Z,8.60
2022-08-24T13:47:27.045Z,9.88
2022-08-24T13:50:03.015Z,9.25
2022-08-24T13:53:02.811Z,10.90
2022-08-24T13:55:38.146Z,12.98
2022-08-24T13:58:35.645Z,8.88
2022-08-24T14:01:24.090Z,11.05
2022-08-24T14:04:10.280Z,10.70
2022-08-24T14:07:03.756Z,15.93
2022-08-24T14:10:03.034Z,8.25
2022-08-24T14:12:30.048Z,8.68
2022-08-24T14:15:16.032Z,10.75
2022-08-24T14:18:11.392Z,11.13
2022-08-24T14:20:40.758Z,11.32
2022-08-24T14:23:13.498Z,9.75
2022-08-24T14:25:40.930Z,8.20
2022-08-24T14:28:34.894Z,8.70
2022-08-24T14:31:29.438Z,8.30
2022-08-24T14:34:25.237Z,10.07
2022-08-24T14:36:59.476Z,10.05
2022-08-24T14:39:39.085Z,7.65
2022-08-24T14:42:47.099Z,12.43
2022-08-24T14:45:53.566Z,11.77
2022-08-24T14:48:42.181Z,9.25
2022-08-24T14:51:45.549Z,9.02
2022-08-24T14:54:30.416Z,14.25
2022-08-24T14:57:28.395Z,12.93
2022-08-24T15:00:15.631Z,11.93
2022-08-24T15:02:51.320Z,10.90
2022-08-24T15:05:40.646Z,9.43
2022-08-24T15:08:11.675Z,14.15
2022-08-24T15:11:00.325Z,10.73
2022-08-24T15:13:44.330Z,6.95
2022-08-24T15:16:17.374Z,14.98
2022-08-24T15:19:17.358Z,8.70
2022-08-24T15:22:07.518Z,8.02
2022-08-24T15:25:01.508Z,9.48
2022-08-24T15:27:46.765Z,11.13
2022-08-24T15:30:26.405Z,11.02
2022-08-24T15:33:03.872Z,12.35
2022-08-24T15:35:34.989Z,18.48
2022-08-24T15:38:29.756Z,8.65
2022-08-24T15:41:15.748Z,10.63
2022-08-24T15:43:51.542Z,11.70
2022-08-24T15:46:26.118Z,12.80
2022-08-24T15:49:01.508Z,13.98
2022-08-24T15:51:48.220Z,9.95
2022-08-24T15:54:25.007Z,15.15
2022-08-24T15:56:55.980Z,9.52
2022-08-24T15:59:50.872Z,8.95
2022-08-24T16:02:28.935Z,10.73
2022-08-24T16:05:16.766Z,6.55
2022-08-24T16:08:02.165Z,8.43
2022-08-24T16:10:33.839Z,7.18
2022-08-24T16:13:28.494Z,18.77
2022-08-24T16:16:11.932Z,10.65
2022-08-24T16:18:51.125Z,7.93
2022-08-24T16:21:39.138Z,12.88
2022-08-24T16:24:25.327Z,8.43
2022-08-24T16:26:56.678Z,11.13
2022-08-24T16:29:38.049Z,9.90
2022-08-24T16:32:22.507Z,10.95
2022-08-24T16:35:01.052Z,10.80
2022-08-24T16:37:27.757Z,10.63
2022-08-24T16:39:54.442Z,10.02
2022-08-24T16:42:27.606Z,10.52
2022-08-24T16:44:55.194Z,11.85
2022-08-24T16:47:22.946Z,7.47
2022-08-24T16:49:51.407Z,8.73
2022-08-24T16:52:18.896Z,11.27
2022-08-24T16:54:46.737Z,8.45
2022-08-24T16:57:15.329Z,10.00
2022-08-24T16:59:44.460Z,11.32
2022-08-24T17:02:12.228Z,7.80
2022-08-24T17:04:40.099Z,16.10
2022-08-24T17:07:09.981Z,9.57
2022-08-24T17:12:04.924Z,9.80
2022-08-24T17:14:31.720Z,11.73
2022-08-24T17:16:59.178Z,11.45
2022-08-24T17:19:29.850Z,9.40
2022-08-24T17:21:57.849Z,11.80
2022-08-24T17:24:25.064Z,10.02
2022-08-24T17:26:53.664Z,9.52
2022-08-24T17:29:20.830Z,9.95
2022-08-24T17:31:50.006Z,8.13
2022-08-24T17:34:19.370Z,10.38
2022-08-24T17:36:46.500Z,6.93
2022-08-24T17:39:14.020Z,9.98
2022-08-24T17:41:40.693Z,10.70
2022-08-24T17:44:10.392Z,10.40
2022-08-24T17:46:37.242Z,8.93
2022-08-24T17:49:04.336Z,8.20
2022-08-24T17:51:30.961Z,11.23
2022-08-24T17:53:57.682Z,8.25
2022-08-24T17:56:25.622Z,6.22
2022-08-24T17:59:11.203Z,8.80
2022-08-24T18:01:38.384Z,9.25
2022-08-24T18:04:05.163Z,11.13
2022-08-24T18:06:32.527Z,8.05
2022-08-24T18:09:10.800Z,13.45
2022-08-24T18:11:37.500Z,8.80
2022-08-24T18:14:04.275Z,9.23
2022-08-24T18:16:32.190Z,9.27
2022-08-24T18:18:59.756Z,7.20
2022-08-24T18:21:26.474Z,12.43
2022-08-24T18:23:53.249Z,8.48
2022-08-24T18:26:27.761Z,15.45
2022-08-24T18:28:57.374Z,13.00
2022-08-24T18:31:26.608Z,12.85
2022-08-24T18:33:54.522Z,9.85
2022-08-24T18:36:21.536Z,9.82
2022-08-24T18:38:48.192Z,11.82
2022-08-24T18:41:15.384Z,9.95
2022-08-24T18:43:42.102Z,11.75
2022-08-24T18:46:08.918Z,11.82
2022-08-24T18:48:36.313Z,10.65
2022-08-24T18:51:03.705Z,9.82
2022-08-24T18:53:30.550Z,12.57
2022-08-24T18:55:59.658Z,10.85
2022-08-24T18:58:29.001Z,15.57
2022-08-24T19:00:55.801Z,10.23
2022-08-24T19:03:25.435Z,16.20
2022-08-24T19:05:52.133Z,12.10
2022-08-24T19:08:18.752Z,11.50
2022-08-24T19:10:45.551Z,19.23
2022-08-24T19:13:18.348Z,11.32
2022-08-24T19:15:49.544Z,12.57
2022-08-24T19:18:17.878Z,15.40
2022-08-24T19:20:49.186Z,9.80
2022-08-24T19:23:23.332Z,13.18
2022-08-24T19:25:50.709Z,14.13
2022-08-24T19:28:18.231Z,17.52
2022-08-24T19:30:46.856Z,13.98
2022-08-24T19:33:22.250Z,14.82
2022-08-24T19:35:51.124Z,15.50
2022-08-24T19:38:20.899Z,12.93
2022-08-24T19:40:51.466Z,12.40
2022-08-24T19:43:18.189Z,15.18
2022-08-24T19:46:05.370Z,11.10
2022-08-24T19:48:34.921Z,11.45
2022-08-24T19:51:08.285Z,11.95
2022-08-24T19:53:37.247Z,12.20
2022-08-24T19:56:05.476Z,10.00
2022-08-24T19:58:46.497Z,8.82
2022-08-24T20:01:18.956Z,10.63
2022-08-24T20:03:45.726Z,10.07
2022-08-24T20:06:13.554Z,8.63
2022-08-24T20:08:40.862Z,8.35
2022-08-24T20:11:08.693Z,10.70
2022-08-24T20:13:35.749Z,10.68
2022-08-24T20:16:06.374Z,12.65
2022-08-24T20:18:38.127Z,11.30
2022-08-24T20:21:05.484Z,12.52
2022-08-24T20:23:32.640Z,9.88
2022-08-24T20:26:01.155Z,11.15
2022-08-24T20:28:40.080Z,11.98
2022-08-24T20:31:08.061Z,7.95
2022-08-24T20:33:35.132Z,8.40
2022-08-24T20:36:02.003Z,10.23
2022-08-24T20:38:29.441Z,10.32
2022-08-24T20:40:59.520Z,11.10
2022-08-24T20:43:26.372Z,11.00
2022-08-24T20:45:53.923Z,12.95
2022-08-24T20:48:31.173Z,11.65
2022-08-24T20:50:59.004Z,8.65
2022-08-24T20:53:26.893Z,12.15
2022-08-24T20:55:56.377Z,9.80
2022-08-24T20:58:23.660Z,10.93
2022-08-24T21:00:50.617Z,12.27
2022-08-24T21:03:18.801Z,12.93
2022-08-24T21:05:47.114Z,13.05
2022-08-24T21:08:14.599Z,10.23
2022-08-24T21:10:42.301Z,16.92
2022-08-24T21:13:09.309Z,18.05
2022-08-24T21:15:37.890Z,8.70
2022-08-24T21:18:05.291Z,12.23
2022-08-24T21:20:32.678Z,12.63
2022-08-24T21:22:59.627Z,12.32
2022-08-24T21:25:27.225Z,11.00
2022-08-24T21:27:54.158Z,9.02
2022-08-24T21:30:22.362Z,10.20
2022-08-24T21:33:07.587Z,12.55
2022-08-24T21:35:35.561Z,10.13
2022-08-24T21:38:02.337Z,11.30
2022-08-24T21:40:29.711Z,12.77
2022-08-24T21:42:56.922Z,10.35
2022-08-24T21:45:24.217Z,11.10
2022-08-24T21:47:50.886Z,11.05
2022-08-24T21:50:18.359Z,10.65
2022-08-24T21:52:45.383Z,9.52
2022-08-24T21:55:17.843Z,9.85
2022-08-24T21:57:44.618Z,11.23
2022-08-24T22:00:15.576Z,9.82
2022-08-24T22:02:42.299Z,10.40
2022-08-24T22:05:09.289Z,13.30
2022-08-24T22:07:36.648Z,13.27
2022-08-24T22:10:04.833Z,10.20
2022-08-24T22:12:31.507Z,11.88
2022-08-24T22:14:58.138Z,15.50
2022-08-24T22:17:24.795Z,13.05
2022-08-24T22:19:51.477Z,12.43
2022-08-24T22:22:18.168Z,10.68
2022-08-24T22:24:44.805Z,10.73
2022-08-24T22:27:11.589Z,9.95
2022-08-24T22:29:38.333Z,10.70
2022-08-24T22:32:05.533Z,10.10
2022-08-24T22:34:32.274Z,11.98
2022-08-24T22:37:01.002Z,9.30
2022-08-24T22:39:27.645Z,10.65
2022-08-24T22:41:54.742Z,11.38
2022-08-24T22:44:21.950Z,9.65
2022-08-24T22:46:59.922Z,13.85
2022-08-24T22:49:29.934Z,12.63
2022-08-24T22:51:57.084Z,9.30
2022-08-24T22:54:25.431Z,9.50
2022-08-24T22:56:53.994Z,9.48
2022-08-24T22:59:27.414Z,10.63
2022-08-24T23:01:56.806Z,11.90
2022-08-24T23:04:34.652Z,11.15
2022-08-24T23:07:02.309Z,12.00
2022-08-24T23:09:29.277Z,11.38
2022-08-24T23:12:10.317Z,10.07
2022-08-24T23:14:37.921Z,8.23
2022-08-24T23:17:05.027Z,9.93
2022-08-24T23:19:50.337Z,13.68
2022-08-24T23:22:19.707Z,14.25
2022-08-24T23:24:47.892Z,12.37
2022-08-24T23:27:16.932Z,11.68
2022-08-24T23:29:46.059Z,11.35
2022-08-24T23:32:13.742Z,11.75
2022-08-24T23:34:48.377Z,13.98
2022-08-24T23:37:17.614Z,17.48
2022-08-24T23:39:44.496Z,13.88
2022-08-24T23:42:11.188Z,14.02
2022-08-24T23:44:39.433Z,14.60
2022-08-24T23:47:07.134Z,13.13
2022-08-24T23:49:34.705Z,10.80
2022-08-24T23:52:01.824Z,8.18
2022-08-24T23:54:28.706Z,9.23
2022-08-24T23:56:56.593Z,11.65
2022-08-24T23:59:29.464Z,10.48
